sensor_id;sensor_type;location;lat;lon;timestamp;temperature;humidity
3684;DHT22;1858;48.716;9.648;2022-08-21T00:02:03;15.10;1.00
3684;DHT22;1858;48.716;9.648;2022-08-21T00:07:18;15.20;1.00
3684;DHT22;1858;48.716;9.648;2022-08-21T00:10:06;15.10;1.00
3684;DHT22;1858;48.716;9.648;2022-08-21T00:12:34;15.20;1.00
3684;DHT22;1858;48.716;9.648;2022-08-21T00:15:02;15.20;1.00
3684;DHT22;1858;48.716;9.648;2022-08-21T00:17:30;15.20;1.00
3684;DHT22;1858;48.716;9.648;2022-08-21T00:19:57;15.20;1.00
3684;DHT22;1858;48.716;9.648;2022-08-21T00:22:25;15.30;1.00
3684;DHT22;1858;48.716;9.648;2022-08-21T00:27:39;15.30;1.00
3684;DHT22;1858;48.716;9.648;2022-08-21T00:30:09;15.20;1.00
3684;DHT22;1858;48.716;9.648;2022-08-21T00:32:38;15.20;1.00
3684;DHT22;1858;48.716;9.648;2022-08-21T00:35:06;15.20;1.00
3684;DHT22;1858;48.716;9.648;2022-08-21T00:37:35;15.20;1.00
3684;DHT22;1858;48.716;9.648;2022-08-21T00:40:03;15.20;1.00
3684;DHT22;1858;48.716;9.648;2022-08-21T00:42:30;15.20;1.00
3684;DHT22;1858;48.716;9.648;2022-08-21T00:44:58;15.10;1.00
3684;DHT22;1858;48.716;9.648;2022-08-21T00:47:26;15.00;1.00
3684;DHT22;1858;48.716;9.648;2022-08-21T00:49:54;15.20;1.00
3684;DHT22;1858;48.716;9.648;2022-08-21T00:52:27;15.10;1.00
3684;DHT22;1858;48.716;9.648;2022-08-21T00:54:50;15.10;1.00
3684;DHT22;1858;48.716;9.648;2022-08-21T00:57:20;15.00;99.90
3684;DHT22;1858;48.716;9.648;2022-08-21T00:59:49;15.10;1.00
3684;DHT22;1858;48.716;9.648;2022-08-21T01:02:18;15.10;1.00
3684;DHT22;1858;48.716;9.648;2022-08-21T01:05:06;15.00;99.90
3684;DHT22;1858;48.716;9.648;2022-08-21T01:07:34;14.90;1.00
3684;DHT22;1858;48.716;9.648;2022-08-21T01:10:02;14.80;1.00
3684;DHT22;1858;48.716;9.648;2022-08-21T01:12:31;14.70;1.00
3684;DHT22;1858;48.716;9.648;2022-08-21T01:17:45;14.60;1.00
3684;DHT22;1858;48.716;9.648;2022-08-21T01:20:13;14.60;1.00
3684;DHT22;1858;48.716;9.648;2022-08-21T01:22:41;14.60;1.00
3684;DHT22;1858;48.716;9.648;2022-08-21T01:25:09;14.50;1.00
3684;DHT22;1858;48.716;9.648;2022-08-21T01:27:37;14.50;1.00
3684;DHT22;1858;48.716;9.648;2022-08-21T01:30:16;14.50;1.00
3684;DHT22;1858;48.716;9.648;2022-08-21T01:32:34;14.50;1.00
3684;DHT22;1858;48.716;9.648;2022-08-21T01:35:03;14.40;1.00
3684;DHT22;1858;48.716;9.648;2022-08-21T01:37:31;14.30;1.00
3684;DHT22;1858;48.716;9.648;2022-08-21T01:39:59;14.30;1.00
3684;DHT22;1858;48.716;9.648;2022-08-21T01:45:07;14.10;1.00
3684;DHT22;1858;48.716;9.648;2022-08-21T01:47:35;14.00;1.00
3684;DHT22;1858;48.716;9.648;2022-08-21T01:50:07;13.90;1.00
3684;DHT22;1858;48.716;9.648;2022-08-21T01:52:35;14.00;1.00
3684;DHT22;1858;48.716;9.648;2022-08-21T01:55:04;14.00;1.00
3684;DHT22;1858;48.716;9.648;2022-08-21T01:57:32;13.90;1.00
3684;DHT22;1858;48.716;9.648;2022-08-21T01:59:59;14.00;1.00
3684;DHT22;1858;48.716;9.648;2022-08-21T02:02:27;14.00;1.00
3684;DHT22;1858;48.716;9.648;2022-08-21T02:04:55;14.00;1.00
3684;DHT22;1858;48.716;9.648;2022-08-21T02:07:23;14.10;1.00
3684;DHT22;1858;48.716;9.648;2022-08-21T02:09:50;14.30;1.00
3684;DHT22;1858;48.716;9.648;2022-08-21T02:12:18;14.20;1.00
3684;DHT22;1858;48.716;9.648;2022-08-21T02:14:45;14.30;1.00
3684;DHT22;1858;48.716;9.648;2022-08-21T02:17:13;14.20;1.00
3684;DHT22;1858;48.716;9.648;2022-08-21T02:19:40;14.20;1.00
3684;DHT22;1858;48.716;9.648;2022-08-21T02:22:09;14.20;1.00
3684;DHT22;1858;48.716;9.648;2022-08-21T02:24:37;14.10;1.00
3684;DHT22;1858;48.716;9.648;2022-08-21T02:27:04;14.00;1.00
3684;DHT22;1858;48.716;9.648;2022-08-21T02:29:32;14.00;99.90
3684;DHT22;1858;48.716;9.648;2022-08-21T02:31:59;13.90;99.90
3684;DHT22;1858;48.716;9.648;2022-08-21T02:34:27;13.90;99.90
3684;DHT22;1858;48.716;9.648;2022-08-21T02:36:55;13.80;99.90
3684;DHT22;1858;48.716;9.648;2022-08-21T02:39:22;13.70;99.90
3684;DHT22;1858;48.716;9.648;2022-08-21T02:41:50;13.70;1.00
3684;DHT22;1858;48.716;9.648;2022-08-21T02:44:18;13.70;1.00
3684;DHT22;1858;48.716;9.648;2022-08-21T02:46:45;13.70;1.00
3684;DHT22;1858;48.716;9.648;2022-08-21T02:49:13;13.70;1.00
3684;DHT22;1858;48.716;9.648;2022-08-21T02:54:27;13.50;1.00
3684;DHT22;1858;48.716;9.648;2022-08-21T02:56:55;13.50;1.00
3684;DHT22;1858;48.716;9.648;2022-08-21T03:02:09;13.40;1.00
3684;DHT22;1858;48.716;9.648;2022-08-21T03:04:38;13.20;1.00
3684;DHT22;1858;48.716;9.648;2022-08-21T03:07:05;13.30;1.00
3684;DHT22;1858;48.716;9.648;2022-08-21T03:09:33;13.20;1.00
3684;DHT22;1858;48.716;9.648;2022-08-21T03:12:01;13.20;1.00
3684;DHT22;1858;48.716;9.648;2022-08-21T03:14:28;13.10;1.00
3684;DHT22;1858;48.716;9.648;2022-08-21T03:16:56;13.20;1.00
3684;DHT22;1858;48.716;9.648;2022-08-21T03:19:23;13.20;1.00
3684;DHT22;1858;48.716;9.648;2022-08-21T03:21:51;13.20;1.00
3684;DHT22;1858;48.716;9.648;2022-08-21T03:24:19;13.10;1.00
3684;DHT22;1858;48.716;9.648;2022-08-21T03:26:46;13.00;1.00
3684;DHT22;1858;48.716;9.648;2022-08-21T03:29:14;13.00;1.00
3684;DHT22;1858;48.716;9.648;2022-08-21T03:31:41;13.00;1.00
3684;DHT22;1858;48.716;9.648;2022-08-21T03:34:09;13.00;1.00
3684;DHT22;1858;48.716;9.648;2022-08-21T03:36:37;13.00;1.00
3684;DHT22;1858;48.716;9.648;2022-08-21T03:39:04;12.90;1.00
3684;DHT22;1858;48.716;9.648;2022-08-21T03:41:32;12.90;1.00
3684;DHT22;1858;48.716;9.648;2022-08-21T03:44:00;12.90;1.00
3684;DHT22;1858;48.716;9.648;2022-08-21T03:46:27;12.90;1.00
3684;DHT22;1858;48.716;9.648;2022-08-21T03:48:55;12.80;1.00
3684;DHT22;1858;48.716;9.648;2022-08-21T03:51:22;12.80;1.00
3684;DHT22;1858;48.716;9.648;2022-08-21T03:53:50;12.80;1.00
3684;DHT22;1858;48.716;9.648;2022-08-21T03:56:18;12.80;1.00
3684;DHT22;1858;48.716;9.648;2022-08-21T03:58:45;12.80;1.00
3684;DHT22;1858;48.716;9.648;2022-08-21T04:01:13;12.70;1.00
3684;DHT22;1858;48.716;9.648;2022-08-21T04:03:40;12.70;1.00
3684;DHT22;1858;48.716;9.648;2022-08-21T04:06:08;12.70;1.00
3684;DHT22;1858;48.716;9.648;2022-08-21T04:08:36;12.70;1.00
3684;DHT22;1858;48.716;9.648;2022-08-21T04:11:04;12.70;1.00
3684;DHT22;1858;48.716;9.648;2022-08-21T04:13:32;12.70;99.90
3684;DHT22;1858;48.716;9.648;2022-08-21T04:16:00;12.70;99.90
3684;DHT22;1858;48.716;9.648;2022-08-21T04:18:28;12.80;1.00
3684;DHT22;1858;48.716;9.648;2022-08-21T04:20:56;12.70;99.90
3684;DHT22;1858;48.716;9.648;2022-08-21T04:23:24;12.70;99.90
3684;DHT22;1858;48.716;9.648;2022-08-21T04:25:53;12.70;99.90
3684;DHT22;1858;48.716;9.648;2022-08-21T04:28:21;12.70;99.90
3684;DHT22;1858;48.716;9.648;2022-08-21T04:30:50;12.70;99.90
3684;DHT22;1858;48.716;9.648;2022-08-21T04:33:19;12.70;99.90
3684;DHT22;1858;48.716;9.648;2022-08-21T04:35:47;12.60;99.90
3684;DHT22;1858;48.716;9.648;2022-08-21T04:38:35;12.60;99.90
3684;DHT22;1858;48.716;9.648;2022-08-21T04:41:03;12.60;99.90
3684;DHT22;1858;48.716;9.648;2022-08-21T04:46:38;12.50;1.00
3684;DHT22;1858;48.716;9.648;2022-08-21T04:49:06;12.40;1.00
3684;DHT22;1858;48.716;9.648;2022-08-21T04:51:34;12.50;1.00
3684;DHT22;1858;48.716;9.648;2022-08-21T04:56:52;12.50;1.00
3684;DHT22;1858;48.716;9.648;2022-08-21T04:59:31;12.60;1.00
3684;DHT22;1858;48.716;9.648;2022-08-21T05:01:48;12.60;1.00
3684;DHT22;1858;48.716;9.648;2022-08-21T05:04:18;12.70;1.00
3684;DHT22;1858;48.716;9.648;2022-08-21T05:06:48;12.70;1.00
3684;DHT22;1858;48.716;9.648;2022-08-21T05:09:36;12.70;1.00
3684;DHT22;1858;48.716;9.648;2022-08-21T05:14:52;12.90;1.00
3684;DHT22;1858;48.716;9.648;2022-08-21T05:17:20;13.00;1.00
3684;DHT22;1858;48.716;9.648;2022-08-21T05:19:47;13.10;1.00
3684;DHT22;1858;48.716;9.648;2022-08-21T05:25:02;13.30;1.00
3684;DHT22;1858;48.716;9.648;2022-08-21T05:27:30;13.30;1.00
3684;DHT22;1858;48.716;9.648;2022-08-21T05:29:58;13.50;1.00
3684;DHT22;1858;48.716;9.648;2022-08-21T05:32:26;13.60;1.00
3684;DHT22;1858;48.716;9.648;2022-08-21T05:34:55;13.60;1.00
3684;DHT22;1858;48.716;9.648;2022-08-21T05:37:23;13.70;1.00
3684;DHT22;1858;48.716;9.648;2022-08-21T05:39:51;13.80;1.00
3684;DHT22;1858;48.716;9.648;2022-08-21T05:42:18;13.80;1.00
3684;DHT22;1858;48.716;9.648;2022-08-21T05:44:46;14.00;1.00
3684;DHT22;1858;48.716;9.648;2022-08-21T05:47:14;14.10;1.00
3684;DHT22;1858;48.716;9.648;2022-08-21T05:49:41;14.30;1.00
3684;DHT22;1858;48.716;9.648;2022-08-21T05:52:09;14.40;1.00
3684;DHT22;1858;48.716;9.648;2022-08-21T05:54:37;14.50;1.00
3684;DHT22;1858;48.716;9.648;2022-08-21T05:57:05;14.60;1.00
3684;DHT22;1858;48.716;9.648;2022-08-21T05:59:32;14.60;1.00
3684;DHT22;1858;48.716;9.648;2022-08-21T06:02:01;14.80;1.00
3684;DHT22;1858;48.716;9.648;2022-08-21T06:04:29;14.90;1.00
3684;DHT22;1858;48.716;9.648;2022-08-21T06:06:56;15.00;1.00
3684;DHT22;1858;48.716;9.648;2022-08-21T06:09:24;15.10;1.00
3684;DHT22;1858;48.716;9.648;2022-08-21T06:11:52;15.20;1.00
3684;DHT22;1858;48.716;9.648;2022-08-21T06:14:19;15.40;99.90
3684;DHT22;1858;48.716;9.648;2022-08-21T06:16:47;15.50;99.90
3684;DHT22;1858;48.716;9.648;2022-08-21T06:19:15;15.70;70.20
3684;DHT22;1858;48.716;9.648;2022-08-21T06:24:31;15.90;99.90
3684;DHT22;1858;48.716;9.648;2022-08-21T06:27:08;16.00;99.90
3684;DHT22;1858;48.716;9.648;2022-08-21T06:29:34;16.20;99.90
3684;DHT22;1858;48.716;9.648;2022-08-21T06:32:02;16.40;94.50
3684;DHT22;1858;48.716;9.648;2022-08-21T06:34:30;16.60;99.90
3684;DHT22;1858;48.716;9.648;2022-08-21T06:36:58;16.80;99.90
3684;DHT22;1858;48.716;9.648;2022-08-21T06:39:30;17.20;99.90
3684;DHT22;1858;48.716;9.648;2022-08-21T06:42:14;18.00;1.00
3684;DHT22;1858;48.716;9.648;2022-08-21T06:44:42;18.90;99.90
3684;DHT22;1858;48.716;9.648;2022-08-21T06:47:10;19.70;13.70
3684;DHT22;1858;48.716;9.648;2022-08-21T06:49:37;20.70;99.90
3684;DHT22;1858;48.716;9.648;2022-08-21T06:52:08;21.60;99.90
3684;DHT22;1858;48.716;9.648;2022-08-21T06:54:37;22.80;65.60
3684;DHT22;1858;48.716;9.648;2022-08-21T06:57:06;23.70;1.00
3684;DHT22;1858;48.716;9.648;2022-08-21T06:59:34;24.50;1.00
3684;DHT22;1858;48.716;9.648;2022-08-21T07:02:02;25.70;1.00
3684;DHT22;1858;48.716;9.648;2022-08-21T07:04:29;27.10;1.00
3684;DHT22;1858;48.716;9.648;2022-08-21T07:06:57;28.40;1.00
3684;DHT22;1858;48.716;9.648;2022-08-21T07:12:11;30.30;99.90
3684;DHT22;1858;48.716;9.648;2022-08-21T07:14:40;31.30;99.90
3684;DHT22;1858;48.716;9.648;2022-08-21T07:17:09;32.00;99.90
3684;DHT22;1858;48.716;9.648;2022-08-21T07:19:37;32.70;99.90
3684;DHT22;1858;48.716;9.648;2022-08-21T07:22:04;33.10;99.90
3684;DHT22;1858;48.716;9.648;2022-08-21T07:24:33;33.50;99.90
3684;DHT22;1858;48.716;9.648;2022-08-21T07:27:01;33.90;99.90
3684;DHT22;1858;48.716;9.648;2022-08-21T07:29:29;34.20;99.90
3684;DHT22;1858;48.716;9.648;2022-08-21T07:31:57;34.30;99.90
3684;DHT22;1858;48.716;9.648;2022-08-21T07:34:25;34.80;99.90
3684;DHT22;1858;48.716;9.648;2022-08-21T07:36:52;35.20;99.90
3684;DHT22;1858;48.716;9.648;2022-08-21T07:39:20;35.80;99.90
3684;DHT22;1858;48.716;9.648;2022-08-21T07:41:48;35.90;99.90
3684;DHT22;1858;48.716;9.648;2022-08-21T07:44:15;36.20;99.90
3684;DHT22;1858;48.716;9.648;2022-08-21T07:46:45;36.60;99.90
3684;DHT22;1858;48.716;9.648;2022-08-21T07:49:12;36.60;99.90
3684;DHT22;1858;48.716;9.648;2022-08-21T07:51:40;36.90;99.90
3684;DHT22;1858;48.716;9.648;2022-08-21T07:54:08;37.50;99.90
3684;DHT22;1858;48.716;9.648;2022-08-21T07:56:36;37.70;99.90
3684;DHT22;1858;48.716;9.648;2022-08-21T07:59:03;38.00;99.90
3684;DHT22;1858;48.716;9.648;2022-08-21T08:04:18;38.70;99.90
3684;DHT22;1858;48.716;9.648;2022-08-21T08:06:46;38.80;99.90
3684;DHT22;1858;48.716;9.648;2022-08-21T08:09:14;38.90;99.90
3684;DHT22;1858;48.716;9.648;2022-08-21T08:11:43;38.90;99.90
3684;DHT22;1858;48.716;9.648;2022-08-21T08:14:11;39.10;99.90
3684;DHT22;1858;48.716;9.648;2022-08-21T08:16:38;39.60;99.90
3684;DHT22;1858;48.716;9.648;2022-08-21T08:19:06;40.00;99.90
3684;DHT22;1858;48.716;9.648;2022-08-21T08:21:34;40.10;99.90
3684;DHT22;1858;48.716;9.648;2022-08-21T08:24:04;40.40;99.90
3684;DHT22;1858;48.716;9.648;2022-08-21T08:26:32;40.30;99.90
3684;DHT22;1858;48.716;9.648;2022-08-21T08:31:46;40.30;99.90
3684;DHT22;1858;48.716;9.648;2022-08-21T08:37:01;40.80;99.90
3684;DHT22;1858;48.716;9.648;2022-08-21T08:39:29;41.10;99.90
3684;DHT22;1858;48.716;9.648;2022-08-21T08:42:08;41.70;99.90
3684;DHT22;1858;48.716;9.648;2022-08-21T08:44:37;41.90;99.90
3684;DHT22;1858;48.716;9.648;2022-08-21T08:47:05;41.80;99.90
3684;DHT22;1858;48.716;9.648;2022-08-21T08:52:22;42.00;99.90
3684;DHT22;1858;48.716;9.648;2022-08-21T08:57:48;42.50;99.90
3684;DHT22;1858;48.716;9.648;2022-08-21T09:00:17;42.70;99.90
3684;DHT22;1858;48.716;9.648;2022-08-21T09:02:45;42.90;99.90
3684;DHT22;1858;48.716;9.648;2022-08-21T09:05:40;43.20;99.90
3684;DHT22;1858;48.716;9.648;2022-08-21T09:16:47;42.00;99.90
3684;DHT22;1858;48.716;9.648;2022-08-21T09:19:23;42.80;99.90
3684;DHT22;1858;48.716;9.648;2022-08-21T09:27:20;43.20;99.90
3684;DHT22;1858;48.716;9.648;2022-08-21T09:29:51;43.80;99.90
3684;DHT22;1858;48.716;9.648;2022-08-21T09:32:21;43.60;99.90
3684;DHT22;1858;48.716;9.648;2022-08-21T09:37:57;43.80;99.90
3684;DHT22;1858;48.716;9.648;2022-08-21T09:43:02;43.50;99.90
3684;DHT22;1858;48.716;9.648;2022-08-21T09:45:32;44.20;99.90
3684;DHT22;1858;48.716;9.648;2022-08-21T09:51:10;44.70;99.90
3684;DHT22;1858;48.716;9.648;2022-08-21T09:56:28;44.70;99.90
3684;DHT22;1858;48.716;9.648;2022-08-21T09:59:30;44.00;99.90
3684;DHT22;1858;48.716;9.648;2022-08-21T10:02:19;44.60;99.90
3684;DHT22;1858;48.716;9.648;2022-08-21T10:04:56;44.30;99.90
3684;DHT22;1858;48.716;9.648;2022-08-21T10:07:15;44.00;99.90
3684;DHT22;1858;48.716;9.648;2022-08-21T10:09:43;44.30;99.90
3684;DHT22;1858;48.716;9.648;2022-08-21T10:12:19;44.80;99.90
3684;DHT22;1858;48.716;9.648;2022-08-21T10:15:02;45.30;99.90
3684;DHT22;1858;48.716;9.648;2022-08-21T10:17:36;46.00;99.90
3684;DHT22;1858;48.716;9.648;2022-08-21T10:23:15;45.60;99.90
3684;DHT22;1858;48.716;9.648;2022-08-21T10:28:30;46.10;99.90
3684;DHT22;1858;48.716;9.648;2022-08-21T10:31:02;45.80;99.90
3684;DHT22;1858;48.716;9.648;2022-08-21T10:33:46;46.20;99.90
3684;DHT22;1858;48.716;9.648;2022-08-21T10:36:18;46.20;99.90
3684;DHT22;1858;48.716;9.648;2022-08-21T10:46:52;46.30;99.90
3684;DHT22;1858;48.716;9.648;2022-08-21T10:49:35;46.50;84.50
3684;DHT22;1858;48.716;9.648;2022-08-21T10:57:39;46.50;86.50
3684;DHT22;1858;48.716;9.648;2022-08-21T11:00:08;46.10;98.80
3684;DHT22;1858;48.716;9.648;2022-08-21T11:05:35;46.00;94.90
3684;DHT22;1858;48.716;9.648;2022-08-21T11:07:58;46.30;99.90
3684;DHT22;1858;48.716;9.648;2022-08-21T11:13:03;45.60;98.40
3684;DHT22;1858;48.716;9.648;2022-08-21T11:18:39;45.60;90.80
3684;DHT22;1858;48.716;9.648;2022-08-21T11:21:18;45.20;70.80
3684;DHT22;1858;48.716;9.648;2022-08-21T11:29:18;39.90;99.90
3684;DHT22;1858;48.716;9.648;2022-08-21T11:37:19;36.20;99.90
3684;DHT22;1858;48.716;9.648;2022-08-21T11:40:09;35.70;99.90
3684;DHT22;1858;48.716;9.648;2022-08-21T11:43:05;35.00;99.90
3684;DHT22;1858;48.716;9.648;2022-08-21T11:45:47;34.40;99.90
3684;DHT22;1858;48.716;9.648;2022-08-21T11:48:27;34.00;99.90
3684;DHT22;1858;48.716;9.648;2022-08-21T11:50:55;33.80;99.90
3684;DHT22;1858;48.716;9.648;2022-08-21T11:53:35;34.00;99.90
3684;DHT22;1858;48.716;9.648;2022-08-21T11:56:10;34.00;99.90
3684;DHT22;1858;48.716;9.648;2022-08-21T11:58:32;33.80;99.90
3684;DHT22;1858;48.716;9.648;2022-08-21T12:01:03;33.60;99.90
3684;DHT22;1858;48.716;9.648;2022-08-21T12:03:33;33.30;99.90
3684;DHT22;1858;48.716;9.648;2022-08-21T12:06:05;32.80;99.90
3684;DHT22;1858;48.716;9.648;2022-08-21T12:08:33;32.60;99.90
3684;DHT22;1858;48.716;9.648;2022-08-21T12:11:03;32.20;99.90
3684;DHT22;1858;48.716;9.648;2022-08-21T12:13:38;31.90;99.90
3684;DHT22;1858;48.716;9.648;2022-08-21T12:18:48;31.00;99.90
3684;DHT22;1858;48.716;9.648;2022-08-21T12:21:25;30.70;99.90
3684;DHT22;1858;48.716;9.648;2022-08-21T12:24:15;30.60;99.90
3684;DHT22;1858;48.716;9.648;2022-08-21T12:26:34;30.50;99.90
3684;DHT22;1858;48.716;9.648;2022-08-21T12:29:14;30.40;99.90
3684;DHT22;1858;48.716;9.648;2022-08-21T12:34:32;30.40;99.90
3684;DHT22;1858;48.716;9.648;2022-08-21T12:39:46;30.30;99.90
3684;DHT22;1858;48.716;9.648;2022-08-21T12:42:16;30.10;99.90
3684;DHT22;1858;48.716;9.648;2022-08-21T12:44:56;30.10;99.90
3684;DHT22;1858;48.716;9.648;2022-08-21T12:50:08;30.00;99.90
3684;DHT22;1858;48.716;9.648;2022-08-21T12:52:38;29.90;99.90
3684;DHT22;1858;48.716;9.648;2022-08-21T12:55:05;29.90;99.90
3684;DHT22;1858;48.716;9.648;2022-08-21T12:57:35;29.90;99.90
3684;DHT22;1858;48.716;9.648;2022-08-21T13:00:08;29.90;99.90
3684;DHT22;1858;48.716;9.648;2022-08-21T13:02:37;29.70;99.90
3684;DHT22;1858;48.716;9.648;2022-08-21T13:05:14;29.60;99.90
3684;DHT22;1858;48.716;9.648;2022-08-21T13:07:48;29.30;99.90
3684;DHT22;1858;48.716;9.648;2022-08-21T13:10:26;29.30;99.90
3684;DHT22;1858;48.716;9.648;2022-08-21T13:12:58;29.30;99.90
3684;DHT22;1858;48.716;9.648;2022-08-21T13:15:32;29.20;99.90
3684;DHT22;1858;48.716;9.648;2022-08-21T13:17:54;29.20;99.90
3684;DHT22;1858;48.716;9.648;2022-08-21T13:20:25;29.20;99.90
3684;DHT22;1858;48.716;9.648;2022-08-21T13:22:53;29.10;99.90
3684;DHT22;1858;48.716;9.648;2022-08-21T13:25:24;29.00;99.90
3684;DHT22;1858;48.716;9.648;2022-08-21T13:28:07;28.90;99.90
3684;DHT22;1858;48.716;9.648;2022-08-21T13:30:45;28.90;99.90
3684;DHT22;1858;48.716;9.648;2022-08-21T13:33:12;29.00;99.90
3684;DHT22;1858;48.716;9.648;2022-08-21T13:38:32;28.70;99.90
3684;DHT22;1858;48.716;9.648;2022-08-21T13:41:06;28.70;99.90
3684;DHT22;1858;48.716;9.648;2022-08-21T13:43:34;28.70;99.90
3684;DHT22;1858;48.716;9.648;2022-08-21T13:46:06;28.70;99.90
3684;DHT22;1858;48.716;9.648;2022-08-21T13:48:37;28.60;99.90
3684;DHT22;1858;48.716;9.648;2022-08-21T13:51:05;28.60;99.90
3684;DHT22;1858;48.716;9.648;2022-08-21T13:53:34;28.60;99.90
3684;DHT22;1858;48.716;9.648;2022-08-21T13:56:03;28.70;99.90
3684;DHT22;1858;48.716;9.648;2022-08-21T13:58:33;28.50;99.90
3684;DHT22;1858;48.716;9.648;2022-08-21T14:01:00;28.20;99.90
3684;DHT22;1858;48.716;9.648;2022-08-21T14:03:36;28.30;99.90
3684;DHT22;1858;48.716;9.648;2022-08-21T14:06:10;28.20;99.90
3684;DHT22;1858;48.716;9.648;2022-08-21T14:08:33;28.30;99.90
3684;DHT22;1858;48.716;9.648;2022-08-21T14:11:03;28.20;99.90
3684;DHT22;1858;48.716;9.648;2022-08-21T14:13:35;28.30;99.90
3684;DHT22;1858;48.716;9.648;2022-08-21T14:16:27;28.40;99.90
3684;DHT22;1858;48.716;9.648;2022-08-21T14:18:33;28.30;99.90
3684;DHT22;1858;48.716;9.648;2022-08-21T14:21:07;28.10;99.90
3684;DHT22;1858;48.716;9.648;2022-08-21T14:23:35;27.80;99.90
3684;DHT22;1858;48.716;9.648;2022-08-21T14:26:05;27.70;99.90
3684;DHT22;1858;48.716;9.648;2022-08-21T14:28:43;27.60;99.90
3684;DHT22;1858;48.716;9.648;2022-08-21T14:31:14;27.50;99.90
3684;DHT22;1858;48.716;9.648;2022-08-21T14:33:42;27.50;99.90
3684;DHT22;1858;48.716;9.648;2022-08-21T14:36:10;27.50;99.90
3684;DHT22;1858;48.716;9.648;2022-08-21T14:38:39;27.60;99.90
3684;DHT22;1858;48.716;9.648;2022-08-21T14:41:29;27.60;99.90
3684;DHT22;1858;48.716;9.648;2022-08-21T14:43:36;27.60;99.90
3684;DHT22;1858;48.716;9.648;2022-08-21T14:48:51;27.90;99.90
3684;DHT22;1858;48.716;9.648;2022-08-21T14:51:19;28.00;99.90
3684;DHT22;1858;48.716;9.648;2022-08-21T14:53:52;27.80;99.90
3684;DHT22;1858;48.716;9.648;2022-08-21T14:56:18;27.80;99.90
3684;DHT22;1858;48.716;9.648;2022-08-21T14:58:47;27.70;99.90
3684;DHT22;1858;48.716;9.648;2022-08-21T15:01:20;27.70;99.90
3684;DHT22;1858;48.716;9.648;2022-08-21T15:03:48;27.80;99.90
3684;DHT22;1858;48.716;9.648;2022-08-21T15:06:16;28.00;99.90
3684;DHT22;1858;48.716;9.648;2022-08-21T15:08:44;27.90;99.90
3684;DHT22;1858;48.716;9.648;2022-08-21T15:11:13;27.80;99.90
3684;DHT22;1858;48.716;9.648;2022-08-21T15:13:41;27.70;99.90
3684;DHT22;1858;48.716;9.648;2022-08-21T15:16:10;27.70;99.90
3684;DHT22;1858;48.716;9.648;2022-08-21T15:18:38;27.60;99.90
3684;DHT22;1858;48.716;9.648;2022-08-21T15:21:06;27.70;99.90
3684;DHT22;1858;48.716;9.648;2022-08-21T15:23:37;27.70;99.90
3684;DHT22;1858;48.716;9.648;2022-08-21T15:26:05;27.80;99.90
3684;DHT22;1858;48.716;9.648;2022-08-21T15:28:34;27.80;99.90
3684;DHT22;1858;48.716;9.648;2022-08-21T15:31:03;27.90;99.90
3684;DHT22;1858;48.716;9.648;2022-08-21T15:33:51;27.80;99.90
3684;DHT22;1858;48.716;9.648;2022-08-21T15:36:19;27.60;99.90
3684;DHT22;1858;48.716;9.648;2022-08-21T15:38:47;27.50;99.90
3684;DHT22;1858;48.716;9.648;2022-08-21T15:41:15;27.50;99.90
3684;DHT22;1858;48.716;9.648;2022-08-21T15:43:45;27.30;99.90
3684;DHT22;1858;48.716;9.648;2022-08-21T15:46:13;27.30;99.90
3684;DHT22;1858;48.716;9.648;2022-08-21T15:48:42;27.30;99.90
3684;DHT22;1858;48.716;9.648;2022-08-21T15:51:10;27.30;99.90
3684;DHT22;1858;48.716;9.648;2022-08-21T15:53:38;27.20;99.90
3684;DHT22;1858;48.716;9.648;2022-08-21T15:56:09;27.20;99.90
3684;DHT22;1858;48.716;9.648;2022-08-21T15:58:36;27.00;99.90
3684;DHT22;1858;48.716;9.648;2022-08-21T16:01:04;27.00;99.90
3684;DHT22;1858;48.716;9.648;2022-08-21T16:03:31;26.90;99.90
3684;DHT22;1858;48.716;9.648;2022-08-21T16:06:00;26.90;99.90
3684;DHT22;1858;48.716;9.648;2022-08-21T16:08:28;26.90;99.90
3684;DHT22;1858;48.716;9.648;2022-08-21T16:10:56;26.80;99.90
3684;DHT22;1858;48.716;9.648;2022-08-21T16:13:30;26.70;99.90
3684;DHT22;1858;48.716;9.648;2022-08-21T16:15:53;26.70;99.90
3684;DHT22;1858;48.716;9.648;2022-08-21T16:18:21;26.80;99.90
3684;DHT22;1858;48.716;9.648;2022-08-21T16:20:49;26.70;99.90
3684;DHT22;1858;48.716;9.648;2022-08-21T16:23:17;26.50;99.90
3684;DHT22;1858;48.716;9.648;2022-08-21T16:25:46;26.40;99.90
3684;DHT22;1858;48.716;9.648;2022-08-21T16:28:15;26.40;99.90
3684;DHT22;1858;48.716;9.648;2022-08-21T16:30:44;26.30;99.90
3684;DHT22;1858;48.716;9.648;2022-08-21T16:33:41;26.40;99.90
3684;DHT22;1858;48.716;9.648;2022-08-21T16:35:47;26.40;99.90
3684;DHT22;1858;48.716;9.648;2022-08-21T16:38:15;26.40;99.90
3684;DHT22;1858;48.716;9.648;2022-08-21T16:40:43;26.40;99.90
3684;DHT22;1858;48.716;9.648;2022-08-21T16:43:12;26.30;99.90
3684;DHT22;1858;48.716;9.648;2022-08-21T16:45:40;26.30;99.90
3684;DHT22;1858;48.716;9.648;2022-08-21T16:48:25;26.20;99.90
3684;DHT22;1858;48.716;9.648;2022-08-21T16:50:55;26.00;99.90
3684;DHT22;1858;48.716;9.648;2022-08-21T16:53:23;25.80;99.90
3684;DHT22;1858;48.716;9.648;2022-08-21T16:55:51;25.70;99.90
3684;DHT22;1858;48.716;9.648;2022-08-21T16:58:26;25.60;99.90
3684;DHT22;1858;48.716;9.648;2022-08-21T17:00:51;25.40;99.90
3684;DHT22;1858;48.716;9.648;2022-08-21T17:03:43;25.20;99.90
3684;DHT22;1858;48.716;9.648;2022-08-21T17:06:09;25.10;99.90
3684;DHT22;1858;48.716;9.648;2022-08-21T17:08:37;25.00;99.90
3684;DHT22;1858;48.716;9.648;2022-08-21T17:11:05;24.80;99.90
3684;DHT22;1858;48.716;9.648;2022-08-21T17:13:38;24.70;99.90
3684;DHT22;1858;48.716;9.648;2022-08-21T17:16:03;24.60;99.90
3684;DHT22;1858;48.716;9.648;2022-08-21T17:18:31;24.50;99.90
3684;DHT22;1858;48.716;9.648;2022-08-21T17:20:58;24.40;99.90
3684;DHT22;1858;48.716;9.648;2022-08-21T17:23:26;24.30;99.90
3684;DHT22;1858;48.716;9.648;2022-08-21T17:25:54;24.20;99.90
3684;DHT22;1858;48.716;9.648;2022-08-21T17:28:23;24.20;99.90
3684;DHT22;1858;48.716;9.648;2022-08-21T17:30:53;24.00;99.90
3684;DHT22;1858;48.716;9.648;2022-08-21T17:33:21;24.00;99.90
3684;DHT22;1858;48.716;9.648;2022-08-21T17:35:56;23.80;99.90
3684;DHT22;1858;48.716;9.648;2022-08-21T17:38:20;23.70;99.90
3684;DHT22;1858;48.716;9.648;2022-08-21T17:40:48;23.60;99.90
3684;DHT22;1858;48.716;9.648;2022-08-21T17:43:16;23.60;99.90
3684;DHT22;1858;48.716;9.648;2022-08-21T17:45:44;23.40;99.90
3684;DHT22;1858;48.716;9.648;2022-08-21T17:48:14;23.30;99.90
3684;DHT22;1858;48.716;9.648;2022-08-21T17:53:29;23.10;99.90
3684;DHT22;1858;48.716;9.648;2022-08-21T17:55:57;22.90;99.90
3684;DHT22;1858;48.716;9.648;2022-08-21T17:58:25;22.80;99.90
3684;DHT22;1858;48.716;9.648;2022-08-21T18:00:53;22.70;99.90
3684;DHT22;1858;48.716;9.648;2022-08-21T18:03:21;22.50;99.90
3684;DHT22;1858;48.716;9.648;2022-08-21T18:05:49;22.30;99.90
3684;DHT22;1858;48.716;9.648;2022-08-21T18:08:19;22.20;99.90
3684;DHT22;1858;48.716;9.648;2022-08-21T18:10:47;22.00;99.90
3684;DHT22;1858;48.716;9.648;2022-08-21T18:13:30;21.70;99.90
3684;DHT22;1858;48.716;9.648;2022-08-21T18:15:46;21.50;99.90
3684;DHT22;1858;48.716;9.648;2022-08-21T18:18:15;21.40;99.90
3684;DHT22;1858;48.716;9.648;2022-08-21T18:20:42;21.30;99.90
3684;DHT22;1858;48.716;9.648;2022-08-21T18:23:10;21.10;99.90
3684;DHT22;1858;48.716;9.648;2022-08-21T18:25:38;20.90;99.90
3684;DHT22;1858;48.716;9.648;2022-08-21T18:28:06;21.00;99.90
3684;DHT22;1858;48.716;9.648;2022-08-21T18:30:36;20.90;99.90
3684;DHT22;1858;48.716;9.648;2022-08-21T18:33:03;20.70;99.90
3684;DHT22;1858;48.716;9.648;2022-08-21T18:35:31;20.70;99.90